< Cyclone 197120 1972 Season Cyclone 197204 >
Cyclone 197202 (KITTY)
General InformationTrack Information on Google Maps || ResourceGoogle EarthGE AnimationAtom FeedGeoJSON
Detalied Best Track (Time Zone = UTC)
Year Month Day Hour Lat. Long. Pressure (hPa) Wind (kt) Class Image Chart
1971 12 2 00 -8.9 139.0 1005 0 0 -- --
1971 12 2 03 -9.1 138.6 1005 0 0 -- --
1971 12 2 06 -9.3 138.2 1005 0 0 -- --
1971 12 2 09 -9.5 137.8 1004 0 0 -- --
1971 12 2 12 -9.7 137.5 1004 0 0 -- --
1971 12 2 15 -9.9 137.2 1004 0 0 -- --
1971 12 2 18 -10.0 136.8 1004 0 0 -- --
1971 12 2 21 -10.2 136.4 1004 0 0 -- --
1971 12 3 00 -10.2 136.0 1004 0 0 -- --
1971 12 3 03 -10.2 135.8 1003 0 0 -- --
1971 12 3 06 -10.2 135.6 1003 0 0 -- --
1971 12 3 09 -10.2 135.4 1003 0 0 -- --
1971 12 3 12 -10.2 135.2 1002 0 0 -- --
1971 12 3 15 -10.2 134.9 1002 0 0 -- --
1971 12 3 18 -10.2 134.7 1002 0 0 -- --
1971 12 3 21 -10.2 134.5 1002 0 0 -- --
1971 12 4 00 -10.3 134.2 1002 0 0 -- --
1971 12 4 03 -10.3 133.8 1002 0 0 -- --
1971 12 4 06 -10.3 133.4 1002 0 0 -- --
1971 12 4 09 -10.3 133.0 1002 0 0 -- --
1971 12 4 12 -10.3 132.5 1002 0 0 -- --
1971 12 4 15 -10.4 132.3 1002 0 0 -- --
1971 12 4 18 -10.5 132.0 1002 0 0 -- --
1971 12 4 21 -10.7 131.7 1000 0 0 -- --
1971 12 5 00 -10.9 131.5 1000 0 0 -- --
1971 12 5 03 -11.2 131.1 1000 0 0 -- --
1971 12 5 06 -11.5 130.7 1000 0 0 -- --
1971 12 5 07 -11.6 130.5 1000 0 0 -- --
1971 12 5 09 -11.9 130.4 1000 0 0 -- --
< Cyclone 197120 1972 Season Cyclone 197204 >

Help